This is the latest recevied weather packets stored in our database for station/object DO3HUM-5. If no packets are shown the sender has not sent any weather packets the latest 1 day(s).
| Time | Temp. | Humidity | Pressure | Rain* | Wind** | Luminosity | Snow |
|---|---|---|---|---|---|---|---|
| 1836274696 | 14.44° C | 80% | 1022.1 hPa | 0 mm | 0 m/s | - | - |
| 1836274095 | 15° C | 80% | 1022.1 hPa | 0 mm | 0.45 m/s, 107° | - | - |
| 1778006170 | 16.67° C | 78% | 1013.4 hPa | 0 mm | 0 m/s | - | - |
| 1778005566 | 16.67° C | 77% | 1013.5 hPa | 0 mm | 0 m/s | - | - |
| 1778004965 | 17.22° C | 76% | 1013.6 hPa | 0 mm | 0 m/s | - | - |
| 1778004360 | 17.22° C | 75% | 1013.7 hPa | 0 mm | 0.45 m/s, 338° | - | - |
| 1778003757 | 17.78° C | 74% | 1013.6 hPa | 0 mm | 0.45 m/s, 354° | - | - |
| 1778003154 | 17.78° C | 74% | 1013.5 hPa | 0 mm | 0.45 m/s, 0° | - | - |
| 1778002551 | 17.78° C | 72% | 1013.6 hPa | 0 mm | 0 m/s | - | - |
| 1778001948 | 18.33° C | 69% | 1013.5 hPa | 0 mm | 0 m/s | - | - |
| 1778000744 | 18.89° C | 67% | 1013.6 hPa | 0 mm | 0.45 m/s, 91° | - | - |
| 1778000142 | 18.89° C | 67% | 1013.7 hPa | 0 mm | 0.45 m/s, 82° | - | - |
| 1777999537 | 19.44° C | 65% | 1013.8 hPa | 0 mm | 0 m/s | - | - |
| 1777998934 | 19.44° C | 65% | 1013.6 hPa | 0 mm | 0.45 m/s, 107° | - | - |
| 1777998332 | 19.44° C | 67% | 1013.8 hPa | 0 mm | 0.45 m/s, 81° | - | - |
| 1777997730 | 19.44° C | 65% | 1013.8 hPa | 0 mm | 0.89 m/s, 75° | - | - |
| 1777997126 | 19.44° C | 65% | 1013.8 hPa | 0 mm | 0.45 m/s, 93° | - | - |
| 1777996525 | 19.44° C | 65% | 1014 hPa | 0 mm | 0.89 m/s, 88° | - | - |
| 1777995921 | 20° C | 65% | 1014.1 hPa | 0 mm | 0.45 m/s, 74° | - | - |
| 1777995319 | 20° C | 65% | 1014.3 hPa | 0 mm | 0.45 m/s, 85° | - | - |
| 1777994775 | 20° C | 65% | 1014.4 hPa | 0 mm | 0.89 m/s, 71° | - | - |
| 1777994172 | 20° C | 64% | 1014.3 hPa | 0 mm | 0.89 m/s, 30° | - | - |
| 1777993569 | 20° C | 64% | 1014.5 hPa | 0 mm | 0.45 m/s, 90° | - | - |
| 1777992966 | 20° C | 65% | 1014.7 hPa | 0 mm | 0.45 m/s, 77° | - | - |
| 1777992363 | 19.44° C | 66% | 1014.8 hPa | 0 mm | 0.45 m/s, 39° | - | - |
* Rain latest hour (hover to see other rain measurements)
** Current wind speed in m/s (hover to see current wind gust speed)